Saint Anne, Missouri
Current Conditions -  °F | °C
As of 6:51 PM on Monday 24 Nov 2014 (Local Time) from KSTL Reporting Station
Broken Clouds Broken Clouds  
Wind Chill:   Ceiling: 8000
Heat Index:   Visibility: 10mi
Dew Point: -2°   Wind: 13mph
Humidity: 63%   Direction: 280°W
Pressure: 29.92"   Gusts: 21mph
Location:  38.7263°N, 90.3885°W
Report Text: KSTL 250051Z 28011G18KT 10SM BKN080 04/M02 A2992 RMK AO2 SLP138 T00441022
Loading
Personal Weather Stations






























Interactive Weather Map New forecast layout! Learn more

10-Day Weather Forecast

Advertisements
Track Severe Weather on mobile